This is the latest recevied weather packets stored in our database for station/object SQ8AQX-13. If no packets are shown the sender has not sent any weather packets the latest 10 day(s).
| Time | Temp. | Humidity | Pressure | Rain* | Wind** | Luminosity | Snow |
|---|---|---|---|---|---|---|---|
| 1777775008 | 6.67° C | 75% | 1022.7 hPa | - | - | - | - |
| 1777774408 | 7.22° C | 72% | 1022.8 hPa | - | - | - | - |
| 1777773808 | 7.78° C | 70% | 1022.8 hPa | - | - | - | - |
| 1777772007 | 8.33° C | 69% | 1022.9 hPa | - | - | - | - |
| 1777771407 | 8.33° C | 69% | 1022.9 hPa | - | - | - | - |
| 1777770807 | 7.78° C | 71% | 1022.8 hPa | - | - | - | - |
| 1777769007 | 8.89° C | 68% | 1022.8 hPa | - | - | - | - |
| 1777768407 | 9.44° C | 66% | 1022.9 hPa | - | - | - | - |
| 1777767807 | 9.44° C | 65% | 1022.7 hPa | - | - | - | - |
| 1777766006 | 10° C | 65% | 1022.9 hPa | - | - | - | - |
| 1777765406 | 10° C | 65% | 1023 hPa | - | - | - | - |
| 1777764806 | 10° C | 65% | 1023.1 hPa | - | - | - | - |
| 1777763006 | 10° C | 64% | 1023 hPa | - | - | - | - |
| 1777762406 | 10° C | 65% | 1023.1 hPa | - | - | - | - |
| 1777761806 | 10° C | 64% | 1023.2 hPa | - | - | - | - |
| 1777760005 | 11.11° C | 60% | 1023.4 hPa | - | - | - | - |
| 1777759405 | 11.67° C | 60% | 1023.5 hPa | - | - | - | - |
| 1777758805 | 12.22° C | 58% | 1023.4 hPa | - | - | - | - |
| 1777757004 | 12.22° C | 58% | 1023.4 hPa | - | - | - | - |
| 1777756404 | 12.78° C | 56% | 1023.5 hPa | - | - | - | - |
| 1777755804 | 12.78° C | 55% | 1023.6 hPa | - | - | - | - |
| 1777754003 | 13.89° C | 52% | 1023.6 hPa | - | - | - | - |
| 1777753403 | 14.44° C | 51% | 1023.6 hPa | - | - | - | - |
| 1777752803 | 14.44° C | 51% | 1023.6 hPa | - | - | - | - |
| 1777751003 | 15° C | 48% | 1023.6 hPa | - | - | - | - |
* Rain since midnight (hover to see other rain measurements)
** Current wind speed in m/s (hover to see current wind gust speed)